sensor_id;sensor_type;location;lat;lon;timestamp;P1;durP1;ratioP1;P2;durP2;ratioP2
29200;SDS011;16244;51.956;12.980;2023-08-07T00:01:49;75.50;;;63.87;;
29200;SDS011;16244;51.956;12.980;2023-08-07T00:04:16;73.27;;;64.90;;
29200;SDS011;16244;51.956;12.980;2023-08-07T00:06:44;84.93;;;57.43;;
29200;SDS011;16244;51.956;12.980;2023-08-07T00:09:12;96.87;;;63.30;;
29200;SDS011;16244;51.956;12.980;2023-08-07T00:11:43;109.70;;;89.80;;
29200;SDS011;16244;51.956;12.980;2023-08-07T00:14:15;96.90;;;68.43;;
29200;SDS011;16244;51.956;12.980;2023-08-07T00:16:44;71.40;;;63.57;;
29200;SDS011;16244;51.956;12.980;2023-08-07T00:19:16;75.20;;;62.97;;
29200;SDS011;16244;51.956;12.980;2023-08-07T00:21:51;92.57;;;61.80;;
29200;SDS011;16244;51.956;12.980;2023-08-07T00:24:18;103.33;;;62.83;;
29200;SDS011;16244;51.956;12.980;2023-08-07T00:26:46;87.07;;;69.67;;
29200;SDS011;16244;51.956;12.980;2023-08-07T00:29:14;77.80;;;68.33;;
29200;SDS011;16244;51.956;12.980;2023-08-07T00:31:44;76.50;;;62.00;;
29200;SDS011;16244;51.956;12.980;2023-08-07T00:34:13;78.00;;;65.03;;
29200;SDS011;16244;51.956;12.980;2023-08-07T00:36:43;133.53;;;101.93;;
29200;SDS011;16244;51.956;12.980;2023-08-07T00:39:11;74.33;;;61.83;;
29200;SDS011;16244;51.956;12.980;2023-08-07T00:41:38;138.43;;;96.97;;
29200;SDS011;16244;51.956;12.980;2023-08-07T00:44:06;87.20;;;62.83;;
29200;SDS011;16244;51.956;12.980;2023-08-07T00:46:34;96.90;;;65.90;;
29200;SDS011;16244;51.956;12.980;2023-08-07T00:49:03;77.67;;;68.70;;
29200;SDS011;16244;51.956;12.980;2023-08-07T00:51:31;101.43;;;67.13;;
29200;SDS011;16244;51.956;12.980;2023-08-07T00:53:59;114.37;;;95.30;;
29200;SDS011;16244;51.956;12.980;2023-08-07T00:56:30;90.10;;;63.60;;
29200;SDS011;16244;51.956;12.980;2023-08-07T00:58:59;128.93;;;99.50;;
29200;SDS011;16244;51.956;12.980;2023-08-07T01:01:29;104.13;;;87.63;;
29200;SDS011;16244;51.956;12.980;2023-08-07T01:03:58;82.17;;;68.00;;
29200;SDS011;16244;51.956;12.980;2023-08-07T01:06:27;134.30;;;93.37;;
29200;SDS011;16244;51.956;12.980;2023-08-07T01:08:59;104.40;;;71.60;;
29200;SDS011;16244;51.956;12.980;2023-08-07T01:11:30;104.20;;;63.30;;
29200;SDS011;16244;51.956;12.980;2023-08-07T01:14:06;91.00;;;71.07;;
29200;SDS011;16244;51.956;12.980;2023-08-07T01:16:39;81.63;;;61.23;;
29200;SDS011;16244;51.956;12.980;2023-08-07T01:19:14;96.67;;;64.43;;
29200;SDS011;16244;51.956;12.980;2023-08-07T01:21:54;72.80;;;59.03;;
29200;SDS011;16244;51.956;12.980;2023-08-07T01:24:31;82.70;;;63.30;;
29200;SDS011;16244;51.956;12.980;2023-08-07T01:27:00;119.13;;;90.60;;
29200;SDS011;16244;51.956;12.980;2023-08-07T01:29:36;137.47;;;96.40;;
29200;SDS011;16244;51.956;12.980;2023-08-07T01:32:11;137.40;;;93.37;;
29200;SDS011;16244;51.956;12.980;2023-08-07T01:34:43;90.57;;;80.77;;
29200;SDS011;16244;51.956;12.980;2023-08-07T01:37:16;88.47;;;65.20;;
29200;SDS011;16244;51.956;12.980;2023-08-07T01:39:45;78.20;;;64.47;;
29200;SDS011;16244;51.956;12.980;2023-08-07T01:42:15;79.03;;;61.07;;
29200;SDS011;16244;51.956;12.980;2023-08-07T01:44:43;151.53;;;109.67;;
29200;SDS011;16244;51.956;12.980;2023-08-07T01:47:11;143.63;;;101.77;;
29200;SDS011;16244;51.956;12.980;2023-08-07T01:49:38;74.47;;;59.87;;
29200;SDS011;16244;51.956;12.980;2023-08-07T01:52:07;91.80;;;62.30;;
29200;SDS011;16244;51.956;12.980;2023-08-07T01:54:36;83.10;;;66.03;;
29200;SDS011;16244;51.956;12.980;2023-08-07T01:57:04;80.47;;;61.13;;
29200;SDS011;16244;51.956;12.980;2023-08-07T01:59:32;94.37;;;65.83;;
29200;SDS011;16244;51.956;12.980;2023-08-07T02:01:59;63.17;;;56.00;;
29200;SDS011;16244;51.956;12.980;2023-08-07T02:04:27;98.97;;;86.97;;
29200;SDS011;16244;51.956;12.980;2023-08-07T02:06:54;126.10;;;94.03;;
29200;SDS011;16244;51.956;12.980;2023-08-07T02:09:22;94.70;;;65.20;;
29200;SDS011;16244;51.956;12.980;2023-08-07T02:11:51;136.93;;;98.47;;
29200;SDS011;16244;51.956;12.980;2023-08-07T02:14:18;96.70;;;69.43;;
29200;SDS011;16244;51.956;12.980;2023-08-07T02:16:46;68.60;;;61.17;;
29200;SDS011;16244;51.956;12.980;2023-08-07T02:19:14;96.13;;;64.47;;
29200;SDS011;16244;51.956;12.980;2023-08-07T02:21:41;134.67;;;99.80;;
29200;SDS011;16244;51.956;12.980;2023-08-07T02:24:09;118.33;;;91.27;;
29200;SDS011;16244;51.956;12.980;2023-08-07T02:26:36;117.63;;;70.43;;
29200;SDS011;16244;51.956;12.980;2023-08-07T02:29:05;92.17;;;63.10;;
29200;SDS011;16244;51.956;12.980;2023-08-07T02:31:34;87.60;;;70.33;;
29200;SDS011;16244;51.956;12.980;2023-08-07T02:34:02;113.03;;;93.40;;
29200;SDS011;16244;51.956;12.980;2023-08-07T02:36:30;102.07;;;70.10;;
29200;SDS011;16244;51.956;12.980;2023-08-07T02:38:57;95.60;;;69.40;;
29200;SDS011;16244;51.956;12.980;2023-08-07T02:41:25;79.60;;;69.33;;
29200;SDS011;16244;51.956;12.980;2023-08-07T02:43:52;99.77;;;79.23;;
29200;SDS011;16244;51.956;12.980;2023-08-07T02:46:21;138.57;;;110.10;;
29200;SDS011;16244;51.956;12.980;2023-08-07T02:48:49;102.00;;;74.73;;
29200;SDS011;16244;51.956;12.980;2023-08-07T02:51:17;95.57;;;77.00;;
29200;SDS011;16244;51.956;12.980;2023-08-07T02:53:44;107.30;;;75.47;;
29200;SDS011;16244;51.956;12.980;2023-08-07T02:56:12;92.60;;;71.50;;
29200;SDS011;16244;51.956;12.980;2023-08-07T02:58:39;96.03;;;72.30;;
29200;SDS011;16244;51.956;12.980;2023-08-07T03:01:07;82.17;;;70.03;;
29200;SDS011;16244;51.956;12.980;2023-08-07T03:03:37;112.80;;;72.43;;
29200;SDS011;16244;51.956;12.980;2023-08-07T03:06:04;93.60;;;67.70;;
29200;SDS011;16244;51.956;12.980;2023-08-07T03:08:32;100.70;;;73.33;;
29200;SDS011;16244;51.956;12.980;2023-08-07T03:10:59;97.70;;;82.73;;
29200;SDS011;16244;51.956;12.980;2023-08-07T03:13:27;117.37;;;77.37;;
29200;SDS011;16244;51.956;12.980;2023-08-07T03:16:01;156.37;;;126.80;;
29200;SDS011;16244;51.956;12.980;2023-08-07T03:18:28;101.90;;;85.33;;
29200;SDS011;16244;51.956;12.980;2023-08-07T03:20:57;97.50;;;78.80;;
29200;SDS011;16244;51.956;12.980;2023-08-07T03:23:25;95.40;;;85.20;;
29200;SDS011;16244;51.956;12.980;2023-08-07T03:26:01;111.07;;;78.07;;
29200;SDS011;16244;51.956;12.980;2023-08-07T03:28:29;101.80;;;83.40;;
29200;SDS011;16244;51.956;12.980;2023-08-07T03:30:57;155.50;;;126.97;;
29200;SDS011;16244;51.956;12.980;2023-08-07T03:33:25;97.07;;;78.87;;
29200;SDS011;16244;51.956;12.980;2023-08-07T03:35:53;103.87;;;81.03;;
29200;SDS011;16244;51.956;12.980;2023-08-07T03:38:24;35.53;;;32.53;;
29200;SDS011;16244;51.956;12.980;2023-08-07T03:40:55;105.60;;;76.30;;
29200;SDS011;16244;51.956;12.980;2023-08-07T03:43:22;89.07;;;74.10;;
29200;SDS011;16244;51.956;12.980;2023-08-07T03:45:53;113.70;;;80.60;;
29200;SDS011;16244;51.956;12.980;2023-08-07T03:48:23;106.30;;;84.20;;
29200;SDS011;16244;51.956;12.980;2023-08-07T03:50:51;107.73;;;90.83;;
29200;SDS011;16244;51.956;12.980;2023-08-07T03:53:18;126.67;;;95.00;;
29200;SDS011;16244;51.956;12.980;2023-08-07T03:55:50;155.97;;;117.87;;
29200;SDS011;16244;51.956;12.980;2023-08-07T03:58:18;112.53;;;100.17;;
29200;SDS011;16244;51.956;12.980;2023-08-07T04:00:45;41.23;;;37.90;;
29200;SDS011;16244;51.956;12.980;2023-08-07T04:03:13;125.27;;;94.47;;
29200;SDS011;16244;51.956;12.980;2023-08-07T04:05:40;42.80;;;39.57;;
29200;SDS011;16244;51.956;12.980;2023-08-07T04:08:08;111.23;;;99.50;;
29200;SDS011;16244;51.956;12.980;2023-08-07T04:10:35;108.73;;;96.97;;
29200;SDS011;16244;51.956;12.980;2023-08-07T04:13:04;87.67;;;80.43;;
29200;SDS011;16244;51.956;12.980;2023-08-07T04:15:32;125.67;;;108.67;;
29200;SDS011;16244;51.956;12.980;2023-08-07T04:17:59;57.13;;;52.10;;
29200;SDS011;16244;51.956;12.980;2023-08-07T04:20:27;208.90;;;187.27;;
29200;SDS011;16244;51.956;12.980;2023-08-07T04:22:54;50.97;;;46.63;;
29200;SDS011;16244;51.956;12.980;2023-08-07T04:25:25;49.33;;;45.43;;
29200;SDS011;16244;51.956;12.980;2023-08-07T04:27:52;127.53;;;104.03;;
29200;SDS011;16244;51.956;12.980;2023-08-07T04:30:21;64.33;;;58.67;;
29200;SDS011;16244;51.956;12.980;2023-08-07T04:32:49;88.70;;;80.80;;
29200;SDS011;16244;51.956;12.980;2023-08-07T04:35:16;42.17;;;38.70;;
29200;SDS011;16244;51.956;12.980;2023-08-07T04:37:44;111.77;;;100.10;;
29200;SDS011;16244;51.956;12.980;2023-08-07T04:40:12;119.20;;;106.53;;
29200;SDS011;16244;51.956;12.980;2023-08-07T04:42:39;183.87;;;156.10;;
29200;SDS011;16244;51.956;12.980;2023-08-07T04:45:07;49.47;;;45.30;;
29200;SDS011;16244;51.956;12.980;2023-08-07T04:47:37;105.87;;;93.87;;
29200;SDS011;16244;51.956;12.980;2023-08-07T04:50:04;96.20;;;87.77;;
29200;SDS011;16244;51.956;12.980;2023-08-07T04:52:32;114.10;;;94.37;;
29200;SDS011;16244;51.956;12.980;2023-08-07T04:55:00;92.30;;;73.63;;
29200;SDS011;16244;51.956;12.980;2023-08-07T04:57:27;176.77;;;144.47;;
29200;SDS011;16244;51.956;12.980;2023-08-07T04:59:55;115.70;;;91.73;;
29200;SDS011;16244;51.956;12.980;2023-08-07T05:02:22;126.80;;;98.40;;
29200;SDS011;16244;51.956;12.980;2023-08-07T05:04:51;188.87;;;149.33;;
29200;SDS011;16244;51.956;12.980;2023-08-07T05:07:18;178.07;;;157.27;;
29200;SDS011;16244;51.956;12.980;2023-08-07T05:09:46;91.87;;;81.93;;
29200;SDS011;16244;51.956;12.980;2023-08-07T05:12:15;36.30;;;32.80;;
29200;SDS011;16244;51.956;12.980;2023-08-07T05:14:43;104.23;;;68.60;;
29200;SDS011;16244;51.956;12.980;2023-08-07T05:17:10;89.43;;;72.53;;
29200;SDS011;16244;51.956;12.980;2023-08-07T05:19:39;91.47;;;73.23;;
29200;SDS011;16244;51.956;12.980;2023-08-07T05:22:07;69.30;;;61.87;;
29200;SDS011;16244;51.956;12.980;2023-08-07T05:24:35;120.87;;;92.87;;
29200;SDS011;16244;51.956;12.980;2023-08-07T05:27:05;22.77;;;18.67;;
29200;SDS011;16244;51.956;12.980;2023-08-07T05:29:34;141.33;;;106.00;;
29200;SDS011;16244;51.956;12.980;2023-08-07T05:32:09;89.70;;;80.07;;
29200;SDS011;16244;51.956;12.980;2023-08-07T05:34:36;103.20;;;92.37;;
29200;SDS011;16244;51.956;12.980;2023-08-07T05:37:04;67.60;;;59.70;;
29200;SDS011;16244;51.956;12.980;2023-08-07T05:39:34;95.80;;;68.83;;
29200;SDS011;16244;51.956;12.980;2023-08-07T05:42:01;75.20;;;63.13;;
29200;SDS011;16244;51.956;12.980;2023-08-07T05:44:29;91.33;;;69.23;;
29200;SDS011;16244;51.956;12.980;2023-08-07T05:46:57;81.83;;;62.10;;
29200;SDS011;16244;51.956;12.980;2023-08-07T05:49:24;75.63;;;63.23;;
29200;SDS011;16244;51.956;12.980;2023-08-07T05:51:52;91.33;;;65.63;;
29200;SDS011;16244;51.956;12.980;2023-08-07T05:54:19;97.47;;;65.60;;
29200;SDS011;16244;51.956;12.980;2023-08-07T05:56:48;107.87;;;87.87;;
29200;SDS011;16244;51.956;12.980;2023-08-07T05:59:16;15.87;;;14.60;;
29200;SDS011;16244;51.956;12.980;2023-08-07T06:01:43;73.77;;;65.93;;
29200;SDS011;16244;51.956;12.980;2023-08-07T06:04:11;76.90;;;63.23;;
29200;SDS011;16244;51.956;12.980;2023-08-07T06:06:38;96.83;;;65.73;;
29200;SDS011;16244;51.956;12.980;2023-08-07T06:09:06;74.67;;;61.60;;
29200;SDS011;16244;51.956;12.980;2023-08-07T06:11:34;85.10;;;55.93;;
29200;SDS011;16244;51.956;12.980;2023-08-07T06:14:03;96.37;;;72.17;;
29200;SDS011;16244;51.956;12.980;2023-08-07T06:16:31;72.93;;;54.60;;
29200;SDS011;16244;51.956;12.980;2023-08-07T06:18:58;64.77;;;57.43;;
29200;SDS011;16244;51.956;12.980;2023-08-07T06:21:26;84.33;;;64.60;;
29200;SDS011;16244;51.956;12.980;2023-08-07T06:23:54;97.20;;;86.80;;
29200;SDS011;16244;51.956;12.980;2023-08-07T06:26:22;87.13;;;66.53;;
29200;SDS011;16244;51.956;12.980;2023-08-07T06:28:50;64.43;;;53.77;;
29200;SDS011;16244;51.956;12.980;2023-08-07T06:31:19;88.83;;;58.40;;
29200;SDS011;16244;51.956;12.980;2023-08-07T06:33:46;52.40;;;46.10;;
29200;SDS011;16244;51.956;12.980;2023-08-07T06:36:14;71.03;;;53.60;;
29200;SDS011;16244;51.956;12.980;2023-08-07T06:38:41;85.47;;;60.90;;
29200;SDS011;16244;51.956;12.980;2023-08-07T06:41:09;76.10;;;57.63;;
29200;SDS011;16244;51.956;12.980;2023-08-07T06:43:36;73.33;;;54.40;;
29200;SDS011;16244;51.956;12.980;2023-08-07T06:46:04;95.97;;;68.70;;
29200;SDS011;16244;51.956;12.980;2023-08-07T06:48:33;37.83;;;25.37;;
29200;SDS011;16244;51.956;12.980;2023-08-07T06:51:00;83.70;;;71.27;;
29200;SDS011;16244;51.956;12.980;2023-08-07T06:53:28;71.37;;;50.43;;
29200;SDS011;16244;51.956;12.980;2023-08-07T06:55:55;56.83;;;36.90;;
29200;SDS011;16244;51.956;12.980;2023-08-07T06:58:23;77.40;;;55.63;;
29200;SDS011;16244;51.956;12.980;2023-08-07T07:00:50;91.50;;;69.53;;
29200;SDS011;16244;51.956;12.980;2023-08-07T07:03:18;85.70;;;56.00;;
29200;SDS011;16244;51.956;12.980;2023-08-07T07:05:48;85.90;;;68.10;;
29200;SDS011;16244;51.956;12.980;2023-08-07T07:08:16;79.10;;;50.40;;
29200;SDS011;16244;51.956;12.980;2023-08-07T07:10:43;66.53;;;40.43;;
29200;SDS011;16244;51.956;12.980;2023-08-07T07:13:11;66.93;;;49.10;;
29200;SDS011;16244;51.956;12.980;2023-08-07T07:15:38;67.33;;;42.43;;
29200;SDS011;16244;51.956;12.980;2023-08-07T07:18:06;74.90;;;47.03;;
29200;SDS011;16244;51.956;12.980;2023-08-07T07:20:33;72.53;;;47.10;;
29200;SDS011;16244;51.956;12.980;2023-08-07T07:23:02;74.87;;;45.37;;
29200;SDS011;16244;51.956;12.980;2023-08-07T07:25:30;57.77;;;48.63;;
29200;SDS011;16244;51.956;12.980;2023-08-07T07:27:57;90.93;;;61.93;;
29200;SDS011;16244;51.956;12.980;2023-08-07T07:30:25;60.03;;;40.47;;
29200;SDS011;16244;51.956;12.980;2023-08-07T07:32:52;80.37;;;43.20;;
29200;SDS011;16244;51.956;12.980;2023-08-07T07:35:19;80.40;;;44.83;;
29200;SDS011;16244;51.956;12.980;2023-08-07T07:37:47;58.63;;;38.50;;
29200;SDS011;16244;51.956;12.980;2023-08-07T07:40:16;64.50;;;51.00;;
29200;SDS011;16244;51.956;12.980;2023-08-07T07:42:43;73.63;;;63.43;;
29200;SDS011;16244;51.956;12.980;2023-08-07T07:45:11;70.43;;;46.00;;
29200;SDS011;16244;51.956;12.980;2023-08-07T07:47:38;50.80;;;36.90;;
29200;SDS011;16244;51.956;12.980;2023-08-07T07:50:07;59.77;;;36.83;;
29200;SDS011;16244;51.956;12.980;2023-08-07T07:52:35;67.57;;;52.20;;
29200;SDS011;16244;51.956;12.980;2023-08-07T07:55:03;71.07;;;46.10;;
29200;SDS011;16244;51.956;12.980;2023-08-07T07:57:32;70.13;;;40.07;;
29200;SDS011;16244;51.956;12.980;2023-08-07T07:59:59;80.60;;;58.23;;
29200;SDS011;16244;51.956;12.980;2023-08-07T08:02:30;60.07;;;38.80;;
29200;SDS011;16244;51.956;12.980;2023-08-07T08:04:57;75.23;;;54.53;;
29200;SDS011;16244;51.956;12.980;2023-08-07T08:07:25;51.93;;;23.67;;
29200;SDS011;16244;51.956;12.980;2023-08-07T08:09:52;64.17;;;48.63;;
29200;SDS011;16244;51.956;12.980;2023-08-07T08:12:21;74.20;;;41.40;;
29200;SDS011;16244;51.956;12.980;2023-08-07T08:14:49;52.30;;;37.00;;
29200;SDS011;16244;51.956;12.980;2023-08-07T08:17:17;49.20;;;37.17;;
29200;SDS011;16244;51.956;12.980;2023-08-07T08:19:45;61.60;;;36.47;;
29200;SDS011;16244;51.956;12.980;2023-08-07T08:22:12;53.53;;;30.23;;
29200;SDS011;16244;51.956;12.980;2023-08-07T08:24:39;61.73;;;48.10;;
29200;SDS011;16244;51.956;12.980;2023-08-07T08:27:07;45.90;;;33.20;;
29200;SDS011;16244;51.956;12.980;2023-08-07T08:29:34;39.27;;;24.97;;
29200;SDS011;16244;51.956;12.980;2023-08-07T08:32:04;50.77;;;37.50;;
29200;SDS011;16244;51.956;12.980;2023-08-07T08:34:32;77.87;;;51.00;;
29200;SDS011;16244;51.956;12.980;2023-08-07T08:36:59;72.00;;;52.67;;
29200;SDS011;16244;51.956;12.980;2023-08-07T08:39:27;53.43;;;36.63;;
29200;SDS011;16244;51.956;12.980;2023-08-07T08:41:54;46.17;;;30.23;;
29200;SDS011;16244;51.956;12.980;2023-08-07T08:44:23;57.80;;;36.73;;
29200;SDS011;16244;51.956;12.980;2023-08-07T08:46:53;45.83;;;34.90;;
29200;SDS011;16244;51.956;12.980;2023-08-07T08:49:25;60.90;;;44.30;;
29200;SDS011;16244;51.956;12.980;2023-08-07T08:51:58;52.93;;;37.70;;
29200;SDS011;16244;51.956;12.980;2023-08-07T08:54:25;66.10;;;47.90;;
29200;SDS011;16244;51.956;12.980;2023-08-07T08:56:55;31.67;;;28.27;;
29200;SDS011;16244;51.956;12.980;2023-08-07T08:59:29;39.37;;;26.13;;
29200;SDS011;16244;51.956;12.980;2023-08-07T09:02:01;46.50;;;30.70;;
29200;SDS011;16244;51.956;12.980;2023-08-07T09:04:31;42.67;;;30.27;;
29200;SDS011;16244;51.956;12.980;2023-08-07T09:07:01;37.97;;;29.67;;
29200;SDS011;16244;51.956;12.980;2023-08-07T09:09:29;33.63;;;24.00;;
29200;SDS011;16244;51.956;12.980;2023-08-07T09:11:58;35.07;;;28.90;;
29200;SDS011;16244;51.956;12.980;2023-08-07T09:14:27;48.73;;;40.37;;
29200;SDS011;16244;51.956;12.980;2023-08-07T09:16:59;29.67;;;25.30;;
29200;SDS011;16244;51.956;12.980;2023-08-07T09:19:32;45.37;;;27.47;;
29200;SDS011;16244;51.956;12.980;2023-08-07T09:22:02;47.53;;;36.90;;
29200;SDS011;16244;51.956;12.980;2023-08-07T09:24:30;43.70;;;33.83;;
29200;SDS011;16244;51.956;12.980;2023-08-07T09:27:05;40.97;;;26.90;;
29200;SDS011;16244;51.956;12.980;2023-08-07T09:29:35;31.20;;;24.43;;
29200;SDS011;16244;51.956;12.980;2023-08-07T09:32:06;43.07;;;34.40;;
29200;SDS011;16244;51.956;12.980;2023-08-07T09:34:36;27.87;;;20.43;;
29200;SDS011;16244;51.956;12.980;2023-08-07T09:37:06;31.27;;;26.17;;
29200;SDS011;16244;51.956;12.980;2023-08-07T09:39:34;33.17;;;14.13;;
29200;SDS011;16244;51.956;12.980;2023-08-07T09:42:02;22.47;;;20.10;;
29200;SDS011;16244;51.956;12.980;2023-08-07T09:44:34;18.23;;;15.23;;
29200;SDS011;16244;51.956;12.980;2023-08-07T09:47:10;17.80;;;16.30;;
29200;SDS011;16244;51.956;12.980;2023-08-07T09:49:41;16.90;;;15.60;;
29200;SDS011;16244;51.956;12.980;2023-08-07T09:52:09;16.53;;;13.97;;
29200;SDS011;16244;51.956;12.980;2023-08-07T09:54:39;18.43;;;14.93;;
29200;SDS011;16244;51.956;12.980;2023-08-07T09:57:07;17.60;;;14.70;;
29200;SDS011;16244;51.956;12.980;2023-08-07T09:59:34;25.37;;;20.87;;
29200;SDS011;16244;51.956;12.980;2023-08-07T10:02:02;16.50;;;14.80;;
29200;SDS011;16244;51.956;12.980;2023-08-07T10:04:30;23.90;;;19.60;;
29200;SDS011;16244;51.956;12.980;2023-08-07T10:06:59;14.60;;;13.13;;
29200;SDS011;16244;51.956;12.980;2023-08-07T10:09:28;12.63;;;11.33;;
29200;SDS011;16244;51.956;12.980;2023-08-07T10:11:57;11.83;;;6.80;;
29200;SDS011;16244;51.956;12.980;2023-08-07T10:14:26;18.63;;;16.73;;
29200;SDS011;16244;51.956;12.980;2023-08-07T10:16:54;15.83;;;14.23;;
29200;SDS011;16244;51.956;12.980;2023-08-07T10:19:21;8.73;;;8.10;;
29200;SDS011;16244;51.956;12.980;2023-08-07T10:21:49;4.10;;;3.90;;
29200;SDS011;16244;51.956;12.980;2023-08-07T10:24:19;0.63;;;0.63;;
29200;SDS011;16244;51.956;12.980;2023-08-07T10:26:47;1.20;;;1.20;;
29200;SDS011;16244;51.956;12.980;2023-08-07T10:29:17;0.70;;;0.70;;
29200;SDS011;16244;51.956;12.980;2023-08-07T10:31:47;1.17;;;0.63;;
29200;SDS011;16244;51.956;12.980;2023-08-07T10:34:16;3.60;;;3.37;;
29200;SDS011;16244;51.956;12.980;2023-08-07T10:36:44;0.50;;;0.47;;
29200;SDS011;16244;51.956;12.980;2023-08-07T10:39:15;0.50;;;0.50;;
29200;SDS011;16244;51.956;12.980;2023-08-07T10:41:46;0.60;;;0.60;;
29200;SDS011;16244;51.956;12.980;2023-08-07T10:44:17;0.70;;;0.70;;
29200;SDS011;16244;51.956;12.980;2023-08-07T10:46:46;1.30;;;1.30;;
29200;SDS011;16244;51.956;12.980;2023-08-07T10:49:34;2.00;;;0.60;;
29200;SDS011;16244;51.956;12.980;2023-08-07T10:52:04;1.27;;;0.50;;
29200;SDS011;16244;51.956;12.980;2023-08-07T10:54:38;1.47;;;0.60;;
29200;SDS011;16244;51.956;12.980;2023-08-07T10:57:12;0.70;;;0.70;;
29200;SDS011;16244;51.956;12.980;2023-08-07T10:59:44;1.43;;;0.90;;
29200;SDS011;16244;51.956;12.980;2023-08-07T11:02:21;1.00;;;1.00;;
29200;SDS011;16244;51.956;12.980;2023-08-07T11:04:51;12.37;;;7.20;;
29200;SDS011;16244;51.956;12.980;2023-08-07T11:07:22;0.60;;;0.60;;
29200;SDS011;16244;51.956;12.980;2023-08-07T11:09:51;0.77;;;0.77;;
29200;SDS011;16244;51.956;12.980;2023-08-07T11:12:20;0.63;;;0.63;;
29200;SDS011;16244;51.956;12.980;2023-08-07T11:14:47;0.87;;;0.87;;
29200;SDS011;16244;51.956;12.980;2023-08-07T11:17:15;1.97;;;1.93;;
29200;SDS011;16244;51.956;12.980;2023-08-07T11:19:43;0.70;;;0.70;;
29200;SDS011;16244;51.956;12.980;2023-08-07T11:22:14;0.50;;;0.50;;
29200;SDS011;16244;51.956;12.980;2023-08-07T11:24:44;2.13;;;1.83;;
29200;SDS011;16244;51.956;12.980;2023-08-07T11:27:15;0.60;;;0.60;;
29200;SDS011;16244;51.956;12.980;2023-08-07T11:29:47;0.80;;;0.73;;
29200;SDS011;16244;51.956;12.980;2023-08-07T11:32:15;1.00;;;1.00;;
29200;SDS011;16244;51.956;12.980;2023-08-07T11:34:46;0.50;;;0.50;;
29200;SDS011;16244;51.956;12.980;2023-08-07T11:37:15;1.20;;;0.67;;
29200;SDS011;16244;51.956;12.980;2023-08-07T11:39:43;0.40;;;0.40;;
29200;SDS011;16244;51.956;12.980;2023-08-07T11:42:11;0.80;;;0.60;;
29200;SDS011;16244;51.956;12.980;2023-08-07T11:44:40;0.70;;;0.70;;
29200;SDS011;16244;51.956;12.980;2023-08-07T11:47:09;0.57;;;0.57;;
29200;SDS011;16244;51.956;12.980;2023-08-07T11:49:37;1.43;;;1.43;;
29200;SDS011;16244;51.956;12.980;2023-08-07T11:52:05;1.77;;;1.77;;
29200;SDS011;16244;51.956;12.980;2023-08-07T11:54:33;1.27;;;0.80;;
29200;SDS011;16244;51.956;12.980;2023-08-07T11:57:01;2.70;;;1.07;;
29200;SDS011;16244;51.956;12.980;2023-08-07T11:59:28;0.73;;;0.73;;
29200;SDS011;16244;51.956;12.980;2023-08-07T12:01:56;1.07;;;1.07;;
29200;SDS011;16244;51.956;12.980;2023-08-07T12:04:25;1.47;;;0.50;;
29200;SDS011;16244;51.956;12.980;2023-08-07T12:06:53;0.70;;;0.70;;
29200;SDS011;16244;51.956;12.980;2023-08-07T12:09:21;0.90;;;0.90;;
29200;SDS011;16244;51.956;12.980;2023-08-07T12:11:49;2.00;;;0.90;;
29200;SDS011;16244;51.956;12.980;2023-08-07T12:14:16;0.60;;;0.60;;
29200;SDS011;16244;51.956;12.980;2023-08-07T12:16:44;1.17;;;1.17;;
29200;SDS011;16244;51.956;12.980;2023-08-07T12:19:12;3.83;;;2.37;;
29200;SDS011;16244;51.956;12.980;2023-08-07T12:21:41;3.47;;;3.23;;
29200;SDS011;16244;51.956;12.980;2023-08-07T12:24:09;4.30;;;4.10;;
29200;SDS011;16244;51.956;12.980;2023-08-07T12:26:36;7.57;;;7.07;;
29200;SDS011;16244;51.956;12.980;2023-08-07T12:29:04;2.77;;;2.50;;
29200;SDS011;16244;51.956;12.980;2023-08-07T12:31:32;7.77;;;7.10;;
29200;SDS011;16244;51.956;12.980;2023-08-07T12:33:59;5.33;;;4.90;;
29200;SDS011;16244;51.956;12.980;2023-08-07T12:36:26;4.43;;;4.20;;
29200;SDS011;16244;51.956;12.980;2023-08-07T12:38:55;7.40;;;3.40;;
29200;SDS011;16244;51.956;12.980;2023-08-07T12:41:23;4.43;;;2.00;;
29200;SDS011;16244;51.956;12.980;2023-08-07T12:43:50;4.60;;;4.30;;
29200;SDS011;16244;51.956;12.980;2023-08-07T12:46:18;2.07;;;1.97;;
29200;SDS011;16244;51.956;12.980;2023-08-07T12:48:45;5.00;;;4.53;;
29200;SDS011;16244;51.956;12.980;2023-08-07T12:51:12;6.63;;;6.23;;
29200;SDS011;16244;51.956;12.980;2023-08-07T12:53:40;2.80;;;2.60;;
29200;SDS011;16244;51.956;12.980;2023-08-07T12:56:09;2.40;;;2.20;;
29200;SDS011;16244;51.956;12.980;2023-08-07T12:58:36;2.40;;;2.20;;
29200;SDS011;16244;51.956;12.980;2023-08-07T13:01:04;3.50;;;3.20;;
29200;SDS011;16244;51.956;12.980;2023-08-07T13:03:32;5.60;;;4.87;;
29200;SDS011;16244;51.956;12.980;2023-08-07T13:05:59;2.80;;;2.60;;
29200;SDS011;16244;51.956;12.980;2023-08-07T13:08:31;1.80;;;1.77;;
29200;SDS011;16244;51.956;12.980;2023-08-07T13:10:59;2.03;;;1.90;;
29200;SDS011;16244;51.956;12.980;2023-08-07T13:13:28;1.93;;;1.83;;
29200;SDS011;16244;51.956;12.980;2023-08-07T13:15:56;1.77;;;1.20;;
29200;SDS011;16244;51.956;12.980;2023-08-07T13:18:24;5.00;;;4.63;;
29200;SDS011;16244;51.956;12.980;2023-08-07T13:20:51;3.53;;;3.23;;
29200;SDS011;16244;51.956;12.980;2023-08-07T13:23:19;4.80;;;4.40;;
29200;SDS011;16244;51.956;12.980;2023-08-07T13:25:46;4.33;;;3.93;;
29200;SDS011;16244;51.956;12.980;2023-08-07T13:28:14;15.13;;;8.13;;
29200;SDS011;16244;51.956;12.980;2023-08-07T13:30:43;5.93;;;5.53;;
29200;SDS011;16244;51.956;12.980;2023-08-07T13:33:11;5.07;;;4.70;;
29200;SDS011;16244;51.956;12.980;2023-08-07T13:35:38;7.37;;;6.80;;
29200;SDS011;16244;51.956;12.980;2023-08-07T13:38:06;8.67;;;7.90;;
29200;SDS011;16244;51.956;12.980;2023-08-07T13:40:35;25.67;;;10.77;;
29200;SDS011;16244;51.956;12.980;2023-08-07T13:43:03;10.60;;;5.20;;
29200;SDS011;16244;51.956;12.980;2023-08-07T13:45:34;5.40;;;4.93;;
29200;SDS011;16244;51.956;12.980;2023-08-07T13:48:03;7.63;;;6.10;;
29200;SDS011;16244;51.956;12.980;2023-08-07T13:50:32;19.70;;;16.00;;
29200;SDS011;16244;51.956;12.980;2023-08-07T13:52:59;29.27;;;22.60;;
29200;SDS011;16244;51.956;12.980;2023-08-07T13:55:27;16.93;;;12.70;;
29200;SDS011;16244;51.956;12.980;2023-08-07T13:57:54;30.70;;;16.10;;
29200;SDS011;16244;51.956;12.980;2023-08-07T14:00:22;33.00;;;29.67;;
29200;SDS011;16244;51.956;12.980;2023-08-07T14:02:49;66.07;;;49.33;;
29200;SDS011;16244;51.956;12.980;2023-08-07T14:05:18;56.63;;;29.00;;
29200;SDS011;16244;51.956;12.980;2023-08-07T14:07:46;42.77;;;20.93;;
29200;SDS011;16244;51.956;12.980;2023-08-07T14:10:13;40.33;;;29.90;;
29200;SDS011;16244;51.956;12.980;2023-08-07T14:12:41;43.57;;;28.27;;
29200;SDS011;16244;51.956;12.980;2023-08-07T14:15:08;32.77;;;24.40;;
29200;SDS011;16244;51.956;12.980;2023-08-07T14:17:38;32.47;;;25.97;;
29200;SDS011;16244;51.956;12.980;2023-08-07T14:20:06;21.07;;;15.23;;